createdAt,value
2023-08-11T00:01:18.977Z,4.28
2023-08-11T00:03:46.170Z,4.10
2023-08-11T00:06:15.179Z,4.10
2023-08-11T00:08:42.045Z,4.68
2023-08-11T00:11:09.112Z,4.63
2023-08-11T00:13:36.680Z,4.30
2023-08-11T00:16:04.775Z,4.35
2023-08-11T00:18:31.866Z,4.38
2023-08-11T00:21:00.344Z,3.83
2023-08-11T00:23:27.290Z,4.47
2023-08-11T00:25:54.025Z,3.95
2023-08-11T00:28:20.860Z,3.92
2023-08-11T00:30:47.752Z,4.30
2023-08-11T00:33:14.824Z,4.20
2023-08-11T00:35:44.494Z,3.40
2023-08-11T00:38:11.513Z,3.47
2023-08-11T00:40:38.482Z,4.40
2023-08-11T00:43:05.416Z,4.07
2023-08-11T00:45:32.390Z,4.22
2023-08-11T00:47:59.609Z,4.55
2023-08-11T00:50:27.100Z,4.47
2023-08-11T00:52:54.078Z,4.35
2023-08-11T00:55:23.042Z,4.40
2023-08-11T00:57:50.223Z,3.63
2023-08-11T01:00:17.605Z,3.88
2023-08-11T01:02:45.706Z,4.82
2023-08-11T01:05:15.494Z,3.85
2023-08-11T01:07:57.620Z,3.95
2023-08-11T01:10:35.000Z,4.07
2023-08-11T01:13:07.489Z,4.00
2023-08-11T01:15:40.745Z,4.07
2023-08-11T01:18:09.033Z,4.63
2023-08-11T01:20:38.338Z,4.63
2023-08-11T01:23:07.888Z,4.22
2023-08-11T01:25:36.011Z,4.60
2023-08-11T01:28:03.756Z,4.28
2023-08-11T01:30:31.566Z,3.85
2023-08-11T01:32:58.503Z,4.80
2023-08-11T01:35:34.258Z,4.35
2023-08-11T01:38:08.128Z,4.60
2023-08-11T01:40:35.322Z,4.03
2023-08-11T01:43:04.739Z,3.95
2023-08-11T01:45:31.568Z,4.00
2023-08-11T01:48:00.468Z,4.10
2023-08-11T01:50:29.120Z,4.15
2023-08-11T01:52:56.151Z,4.60
2023-08-11T01:55:26.139Z,3.92
2023-08-11T01:57:59.105Z,4.30
2023-08-11T02:00:27.958Z,4.47
2023-08-11T02:02:55.191Z,4.22
2023-08-11T02:05:25.994Z,4.28
2023-08-11T02:07:54.241Z,4.55
2023-08-11T02:10:21.383Z,4.30
2023-08-11T02:12:49.373Z,4.13
2023-08-11T02:15:16.485Z,4.95
2023-08-11T02:17:43.809Z,4.50
2023-08-11T02:20:31.523Z,4.80
2023-08-11T02:22:58.258Z,4.50
2023-08-11T02:25:27.091Z,4.35
2023-08-11T02:27:54.556Z,4.35
2023-08-11T02:30:23.468Z,4.95
2023-08-11T02:32:51.664Z,4.57
2023-08-11T02:35:19.055Z,4.57
2023-08-11T02:37:46.108Z,4.45
2023-08-11T02:40:13.173Z,4.75
2023-08-11T02:42:45.236Z,5.03
2023-08-11T02:45:12.730Z,4.30
2023-08-11T02:47:43.599Z,4.18
2023-08-11T02:50:11.047Z,4.47
2023-08-11T02:52:38.708Z,4.47
2023-08-11T02:55:06.712Z,4.35
2023-08-11T02:57:34.558Z,4.80
2023-08-11T03:00:01.952Z,4.32
2023-08-11T03:02:28.758Z,5.97
2023-08-11T03:04:55.604Z,4.97
2023-08-11T03:07:22.337Z,4.45
2023-08-11T03:09:49.061Z,3.97
2023-08-11T03:12:15.834Z,4.28
2023-08-11T03:14:43.061Z,4.65
2023-08-11T03:17:11.417Z,4.82
2023-08-11T03:19:38.211Z,4.43
2023-08-11T03:22:05.211Z,4.40
2023-08-11T03:24:32.035Z,4.47
2023-08-11T03:26:58.738Z,4.95
2023-08-11T03:29:25.386Z,4.25
2023-08-11T03:31:52.065Z,4.45
2023-08-11T03:34:18.892Z,4.72
2023-08-11T03:36:45.764Z,4.68
2023-08-11T03:39:12.784Z,4.45
2023-08-11T03:41:39.569Z,4.47
2023-08-11T03:44:06.616Z,5.05
2023-08-11T03:46:33.545Z,4.82
2023-08-11T03:49:00.304Z,4.40
2023-08-11T03:51:27.661Z,4.53
2023-08-11T03:53:54.568Z,5.03
2023-08-11T03:56:21.388Z,4.75
2023-08-11T03:58:48.099Z,5.03
2023-08-11T04:01:14.857Z,4.25
2023-08-11T04:03:41.837Z,4.32
2023-08-11T04:06:08.634Z,4.68
2023-08-11T04:08:35.362Z,4.63
2023-08-11T04:11:02.267Z,5.00
2023-08-11T04:13:29.457Z,4.30
2023-08-11T04:15:56.133Z,4.68
2023-08-11T04:18:22.993Z,5.07
2023-08-11T04:20:49.643Z,4.60
2023-08-11T04:23:16.306Z,5.32
2023-08-11T04:25:44.549Z,4.93
2023-08-11T04:28:11.655Z,4.88
2023-08-11T04:30:38.848Z,4.32
2023-08-11T04:33:06.826Z,4.68
2023-08-11T04:35:34.451Z,4.30
2023-08-11T04:38:01.322Z,5.28
2023-08-11T04:40:28.100Z,4.30
2023-08-11T04:42:54.805Z,5.13
2023-08-11T04:45:21.639Z,4.63
2023-08-11T04:47:48.728Z,4.60
2023-08-11T04:50:15.547Z,4.53
2023-08-11T04:52:43.906Z,4.75
2023-08-11T04:55:13.947Z,4.50
2023-08-11T04:57:40.940Z,4.10
2023-08-11T05:00:14.839Z,4.60
2023-08-11T05:02:43.304Z,5.30
2023-08-11T05:05:10.467Z,4.32
2023-08-11T05:07:38.466Z,4.75
2023-08-11T05:10:05.801Z,4.82
2023-08-11T05:12:32.755Z,4.50
2023-08-11T05:14:59.545Z,4.72
2023-08-11T05:17:26.200Z,5.07
2023-08-11T05:19:52.930Z,4.57
2023-08-11T05:22:19.627Z,4.65
2023-08-11T05:24:46.308Z,5.15
2023-08-11T05:27:13.578Z,5.07
2023-08-11T05:29:40.317Z,4.35
2023-08-11T05:32:07.197Z,4.50
2023-08-11T05:34:34.122Z,4.70
2023-08-11T05:37:00.953Z,4.65
2023-08-11T05:39:27.658Z,4.15
2023-08-11T05:41:54.607Z,4.40
2023-08-11T05:44:21.361Z,4.40
2023-08-11T05:46:48.311Z,4.88
2023-08-11T05:49:15.196Z,4.80
2023-08-11T05:51:41.924Z,4.35
2023-08-11T05:54:08.680Z,4.43
2023-08-11T05:56:35.346Z,3.90
2023-08-11T05:59:02.054Z,4.40
2023-08-11T06:01:28.807Z,3.88
2023-08-11T06:03:55.583Z,4.32
2023-08-11T06:06:22.363Z,3.88
2023-08-11T06:08:49.285Z,4.00
2023-08-11T06:11:15.963Z,3.95
2023-08-11T06:13:42.819Z,3.42
2023-08-11T06:16:09.790Z,3.47
2023-08-11T06:18:36.651Z,3.72
2023-08-11T06:21:05.401Z,3.78
2023-08-11T06:23:33.577Z,3.58
2023-08-11T06:26:00.392Z,3.88
2023-08-11T06:28:27.213Z,3.53
2023-08-11T06:30:54.858Z,2.72
2023-08-11T06:33:22.501Z,3.15
2023-08-11T06:35:49.254Z,3.67
2023-08-11T06:38:15.907Z,3.28
2023-08-11T06:40:42.665Z,3.83
2023-08-11T06:43:09.421Z,3.70
2023-08-11T06:45:36.191Z,2.72
2023-08-11T06:48:03.067Z,3.38
2023-08-11T06:50:29.917Z,3.22
2023-08-11T06:52:59.301Z,2.85
2023-08-11T06:55:27.156Z,3.47
2023-08-11T06:57:53.818Z,3.30
2023-08-11T07:00:20.515Z,2.78
2023-08-11T07:02:47.268Z,2.88
2023-08-11T07:05:14.124Z,3.28
2023-08-11T07:07:40.939Z,2.40
2023-08-11T07:10:08.009Z,3.10
2023-08-11T07:12:34.806Z,2.90
2023-08-11T07:15:02.022Z,2.45
2023-08-11T07:17:28.714Z,2.92
2023-08-11T07:19:55.565Z,3.17
2023-08-11T07:22:22.312Z,2.90
2023-08-11T07:24:49.011Z,3.00
2023-08-11T07:27:17.617Z,2.92
2023-08-11T07:29:46.108Z,3.13
2023-08-11T07:32:12.801Z,2.47
2023-08-11T07:34:39.703Z,3.20
2023-08-11T07:37:06.747Z,3.10
2023-08-11T07:39:34.121Z,2.90
2023-08-11T07:42:04.200Z,2.70
2023-08-11T07:44:32.590Z,2.60
2023-08-11T07:46:59.956Z,2.80
2023-08-11T07:49:26.815Z,2.70
2023-08-11T07:51:53.559Z,2.60
2023-08-11T07:54:20.686Z,2.42
2023-08-11T07:56:47.553Z,2.30
2023-08-11T07:59:14.303Z,2.60
2023-08-11T08:01:41.068Z,2.78
2023-08-11T08:04:07.804Z,2.63
2023-08-11T08:06:37.286Z,3.30
2023-08-11T08:09:04.222Z,2.75
2023-08-11T08:11:30.953Z,2.78
2023-08-11T08:13:57.630Z,2.63
2023-08-11T08:16:24.364Z,2.58
2023-08-11T08:18:51.191Z,2.53
2023-08-11T08:21:17.849Z,2.58
2023-08-11T08:23:44.627Z,2.60
2023-08-11T08:26:11.326Z,2.20
2023-08-11T08:28:38.489Z,2.40
2023-08-11T08:31:07.135Z,2.50
2023-08-11T08:33:34.600Z,2.20
2023-08-11T08:36:01.351Z,2.47
2023-08-11T08:38:28.034Z,2.83
2023-08-11T08:40:55.043Z,2.22
2023-08-11T08:43:22.498Z,3.15
2023-08-11T08:45:51.963Z,2.72
2023-08-11T08:48:25.874Z,3.10
2023-08-11T08:50:52.781Z,3.03
2023-08-11T08:53:20.292Z,2.58
2023-08-11T08:55:47.617Z,2.60
2023-08-11T08:58:15.969Z,2.65
2023-08-11T09:00:44.240Z,2.92
2023-08-11T09:03:12.213Z,2.88
2023-08-11T09:05:39.356Z,2.13
2023-08-11T09:08:06.824Z,2.33
2023-08-11T09:10:37.730Z,2.20
2023-08-11T09:13:04.946Z,2.00
2023-08-11T09:15:31.677Z,2.40
2023-08-11T09:18:00.092Z,2.40
2023-08-11T09:20:28.082Z,2.17
2023-08-11T09:22:54.842Z,2.22
2023-08-11T09:25:21.776Z,2.50
2023-08-11T09:27:52.225Z,2.05
2023-08-11T09:30:18.950Z,2.10
2023-08-11T09:32:51.972Z,2.72
2023-08-11T09:35:25.037Z,2.03
2023-08-11T09:37:56.245Z,1.80
2023-08-11T09:40:23.895Z,1.90
2023-08-11T09:42:52.421Z,2.00
2023-08-11T09:45:19.437Z,1.80
2023-08-11T09:47:47.192Z,1.73
2023-08-11T09:50:14.453Z,1.70
2023-08-11T09:52:42.927Z,1.80
2023-08-11T09:55:14.177Z,1.90
2023-08-11T09:57:45.169Z,1.88
2023-08-11T10:00:15.951Z,1.58
2023-08-11T10:03:07.283Z,1.73
2023-08-11T10:05:40.831Z,1.90
2023-08-11T10:08:11.091Z,1.90
2023-08-11T10:10:39.816Z,1.90
2023-08-11T10:13:09.169Z,1.90
2023-08-11T10:15:36.598Z,2.08
2023-08-11T10:18:04.220Z,1.70
2023-08-11T10:20:31.572Z,1.98
2023-08-11T10:22:59.002Z,1.70
2023-08-11T10:25:26.810Z,2.25
2023-08-11T10:27:55.339Z,1.75
2023-08-11T10:30:24.384Z,1.83
2023-08-11T10:33:10.379Z,1.60
2023-08-11T10:35:46.936Z,1.60
2023-08-11T10:38:14.029Z,1.85
2023-08-11T10:40:41.191Z,1.88
2023-08-11T10:43:07.989Z,1.88
2023-08-11T10:45:37.452Z,1.52
2023-08-11T10:48:09.561Z,1.92
2023-08-11T10:50:38.602Z,2.03
2023-08-11T10:53:20.865Z,1.95
2023-08-11T10:56:04.254Z,1.77
2023-08-11T10:58:31.903Z,1.90
2023-08-11T11:00:59.536Z,1.83
2023-08-11T11:03:27.063Z,1.77
2023-08-11T11:05:53.803Z,1.90
2023-08-11T11:08:20.533Z,1.90
2023-08-11T11:10:50.681Z,1.70
2023-08-11T11:13:18.443Z,1.90
2023-08-11T11:15:45.623Z,1.98
2023-08-11T11:18:12.748Z,2.40
2023-08-11T11:20:39.548Z,2.28
2023-08-11T11:23:06.778Z,2.00
2023-08-11T11:25:33.701Z,1.95
2023-08-11T11:28:00.441Z,2.13
2023-08-11T11:30:27.197Z,1.80
2023-08-11T11:32:54.068Z,1.67
2023-08-11T11:35:20.827Z,1.88
2023-08-11T11:37:47.675Z,1.50
2023-08-11T11:40:15.137Z,1.80
2023-08-11T11:42:42.789Z,2.28
2023-08-11T11:45:11.863Z,1.77
2023-08-11T11:47:38.893Z,1.80
2023-08-11T11:50:09.705Z,2.10
2023-08-11T11:52:37.967Z,1.70
2023-08-11T11:55:07.419Z,2.30
2023-08-11T11:57:35.360Z,1.52
2023-08-11T12:00:04.454Z,1.90
2023-08-11T12:02:31.572Z,1.75
2023-08-11T12:04:58.634Z,2.13
2023-08-11T12:07:30.406Z,2.13
2023-08-11T12:09:57.366Z,1.75
2023-08-11T12:12:30.258Z,1.95
2023-08-11T12:15:08.260Z,1.70
2023-08-11T12:17:36.693Z,1.70
2023-08-11T12:20:09.571Z,1.90
2023-08-11T12:22:36.480Z,1.90
2023-08-11T12:25:03.374Z,1.58
2023-08-11T12:27:30.137Z,1.80
2023-08-11T12:29:56.897Z,1.70
2023-08-11T12:32:23.694Z,1.73
2023-08-11T12:34:50.439Z,1.63
2023-08-11T12:37:17.359Z,1.70
2023-08-11T12:39:44.149Z,1.90
2023-08-11T12:42:11.627Z,1.70
2023-08-11T12:44:40.523Z,1.80
2023-08-11T12:47:07.768Z,1.65
2023-08-11T12:49:34.618Z,1.40
2023-08-11T12:52:01.482Z,1.60
2023-08-11T12:54:28.276Z,1.65
2023-08-11T12:56:55.108Z,1.85
2023-08-11T12:59:21.961Z,2.00
2023-08-11T13:01:48.818Z,2.00
2023-08-11T13:04:15.749Z,1.70
2023-08-11T13:06:42.477Z,1.92
2023-08-11T13:09:09.270Z,1.60
2023-08-11T13:11:36.060Z,1.52
2023-08-11T13:14:03.778Z,1.75
2023-08-11T13:16:30.836Z,1.67
2023-08-11T13:18:57.669Z,1.40
2023-08-11T13:21:24.391Z,1.90
2023-08-11T13:23:51.140Z,1.90
2023-08-11T13:26:17.878Z,1.50
2023-08-11T13:28:44.614Z,1.35
2023-08-11T13:31:11.415Z,1.58
2023-08-11T13:33:38.379Z,1.48
2023-08-11T13:36:06.148Z,1.25
2023-08-11T13:38:33.253Z,1.48
2023-08-11T13:41:00.074Z,1.40
2023-08-11T13:43:26.958Z,1.80
2023-08-11T13:45:54.716Z,1.33
2023-08-11T13:48:24.779Z,1.40
2023-08-11T13:50:54.705Z,1.30
2023-08-11T13:53:21.603Z,1.67
2023-08-11T13:55:48.339Z,1.67
2023-08-11T13:58:15.177Z,1.40
2023-08-11T14:00:41.972Z,1.67
2023-08-11T14:03:08.714Z,1.63
2023-08-11T14:05:35.862Z,1.33
2023-08-11T14:08:02.608Z,1.50
2023-08-11T14:10:29.298Z,1.90
2023-08-11T14:12:56.035Z,1.63
2023-08-11T14:15:22.794Z,1.88
2023-08-11T14:17:49.483Z,2.38
2023-08-11T14:20:16.625Z,2.13
2023-08-11T14:22:43.370Z,2.10
2023-08-11T14:25:10.082Z,2.20
2023-08-11T14:27:36.847Z,1.98
2023-08-11T14:30:03.807Z,1.80
2023-08-11T14:32:30.684Z,1.60
2023-08-11T14:34:57.501Z,1.52
2023-08-11T14:37:24.279Z,1.85
2023-08-11T14:39:51.055Z,1.80
2023-08-11T14:42:18.096Z,1.60
2023-08-11T14:44:44.918Z,2.05
2023-08-11T14:47:15.468Z,1.52
2023-08-11T14:49:43.715Z,2.00
2023-08-11T14:52:11.836Z,1.80
2023-08-11T14:54:39.042Z,1.70
2023-08-11T14:57:06.645Z,1.40
2023-08-11T14:59:33.328Z,1.48
2023-08-11T15:01:59.981Z,1.52
2023-08-11T15:04:28.026Z,1.40
2023-08-11T15:06:55.012Z,1.70
2023-08-11T15:09:21.827Z,1.90
2023-08-11T15:11:49.395Z,1.60
2023-08-11T15:14:17.090Z,2.00
2023-08-11T15:16:43.900Z,1.70
2023-08-11T15:19:10.649Z,1.70
2023-08-11T15:21:37.647Z,1.95
2023-08-11T15:24:04.601Z,1.80
2023-08-11T15:26:31.281Z,2.00
2023-08-11T15:28:58.349Z,1.70
2023-08-11T15:31:25.208Z,1.48
2023-08-11T15:33:51.940Z,1.55
2023-08-11T15:36:21.071Z,1.30
2023-08-11T15:38:48.721Z,1.50
2023-08-11T15:41:15.522Z,2.20
2023-08-11T15:43:42.420Z,1.65
2023-08-11T15:46:09.297Z,2.20
2023-08-11T15:48:36.057Z,1.95
2023-08-11T15:51:04.116Z,1.50
2023-08-11T15:53:31.006Z,1.70
2023-08-11T15:55:57.821Z,1.85
2023-08-11T15:58:24.537Z,2.00
2023-08-11T16:00:52.244Z,1.58
2023-08-11T16:03:21.558Z,1.60
2023-08-11T16:05:49.100Z,1.55
2023-08-11T16:08:15.830Z,1.70
2023-08-11T16:10:43.622Z,2.20
2023-08-11T16:13:11.295Z,2.70
2023-08-11T16:15:38.334Z,1.92
2023-08-11T16:18:11.346Z,1.60
2023-08-11T16:20:38.474Z,2.05
2023-08-11T16:23:05.820Z,1.70
2023-08-11T16:25:32.674Z,1.80
2023-08-11T16:27:59.974Z,1.65
2023-08-11T16:30:26.708Z,1.77
2023-08-11T16:32:56.058Z,1.73
2023-08-11T16:35:23.023Z,1.88
2023-08-11T16:37:49.716Z,1.77
2023-08-11T16:40:16.561Z,1.98
2023-08-11T16:42:43.310Z,1.83
2023-08-11T16:45:10.457Z,2.10
2023-08-11T16:47:37.192Z,2.13
2023-08-11T16:50:04.052Z,2.17
2023-08-11T16:52:30.745Z,1.90
2023-08-11T16:54:58.864Z,1.90
2023-08-11T16:57:25.605Z,2.20
2023-08-11T16:59:52.268Z,2.03
2023-08-11T17:02:19.005Z,1.83
2023-08-11T17:04:45.803Z,1.70
2023-08-11T17:07:12.517Z,1.95
2023-08-11T17:09:39.273Z,1.77
2023-08-11T17:12:06.456Z,1.90
2023-08-11T17:14:33.169Z,1.83
2023-08-11T17:16:59.931Z,1.70
2023-08-11T17:19:26.838Z,2.15
2023-08-11T17:21:54.133Z,2.45
2023-08-11T17:24:20.871Z,2.63
2023-08-11T17:26:47.582Z,2.00
2023-08-11T17:29:14.261Z,2.30
2023-08-11T17:31:40.976Z,2.22
2023-08-11T17:34:07.712Z,2.17
2023-08-11T17:36:34.382Z,1.90
2023-08-11T17:39:01.368Z,2.50
2023-08-11T17:41:28.162Z,3.10
2023-08-11T17:43:57.818Z,3.03
2023-08-11T17:46:24.762Z,2.38
2023-08-11T17:48:53.605Z,4.68
2023-08-11T17:51:21.892Z,3.13
2023-08-11T17:53:59.697Z,3.13
2023-08-11T17:56:36.748Z,3.15
2023-08-11T17:59:03.842Z,2.92
2023-08-11T18:01:31.150Z,2.70
2023-08-11T18:04:02.654Z,3.10
2023-08-11T18:06:32.005Z,3.55
2023-08-11T18:08:58.688Z,3.17
2023-08-11T18:11:25.477Z,3.22
2023-08-11T18:13:52.193Z,2.70
2023-08-11T18:16:18.990Z,3.20
2023-08-11T18:18:45.864Z,3.30
2023-08-11T18:21:20.598Z,3.38
2023-08-11T18:23:48.098Z,3.00
2023-08-11T18:26:15.869Z,3.10
2023-08-11T18:28:42.802Z,3.53
2023-08-11T18:31:09.700Z,3.30
2023-08-11T18:33:36.400Z,3.17
2023-08-11T18:36:03.135Z,3.72
2023-08-11T18:38:29.907Z,3.45
2023-08-11T18:40:56.612Z,3.83
2023-08-11T18:43:23.392Z,3.10
2023-08-11T18:45:50.141Z,3.50
2023-08-11T18:48:17.091Z,4.18
2023-08-11T18:50:43.817Z,5.55
2023-08-11T18:53:10.509Z,4.47
2023-08-11T18:55:37.254Z,4.00
2023-08-11T18:58:04.757Z,3.63
2023-08-11T19:00:31.556Z,2.75
2023-08-11T19:02:58.238Z,3.33
2023-08-11T19:05:25.215Z,3.40
2023-08-11T19:07:51.981Z,3.58
2023-08-11T19:10:18.706Z,3.47
2023-08-11T19:12:45.415Z,4.00
2023-08-11T19:15:12.148Z,3.80
2023-08-11T19:17:38.845Z,4.00
2023-08-11T19:20:06.136Z,3.90
2023-08-11T19:22:32.823Z,3.65
2023-08-11T19:24:59.525Z,4.00
2023-08-11T19:27:28.395Z,3.67
2023-08-11T19:29:55.677Z,3.72
2023-08-11T19:32:22.496Z,3.60
2023-08-11T19:34:49.248Z,3.60
2023-08-11T19:37:16.053Z,3.65
2023-08-11T19:39:42.802Z,4.53
2023-08-11T19:42:09.675Z,4.15
2023-08-11T19:44:38.368Z,3.97
2023-08-11T19:47:05.257Z,4.38
2023-08-11T19:49:31.960Z,4.32
2023-08-11T19:51:58.785Z,4.15
2023-08-11T19:54:25.528Z,4.40
2023-08-11T19:56:52.351Z,4.50
2023-08-11T19:59:19.281Z,4.20
2023-08-11T20:01:46.048Z,4.60
2023-08-11T20:04:13.637Z,5.20
2023-08-11T20:06:40.458Z,4.72
2023-08-11T20:09:09.356Z,5.38
2023-08-11T20:11:36.166Z,5.50
2023-08-11T20:14:02.964Z,5.30
2023-08-11T20:16:29.638Z,4.90
2023-08-11T20:18:56.392Z,4.93
2023-08-11T20:21:23.116Z,5.38
2023-08-11T20:23:49.767Z,5.35
2023-08-11T20:26:16.447Z,5.22
2023-08-11T20:28:47.206Z,5.15
2023-08-11T20:31:15.373Z,5.60
2023-08-11T20:33:42.223Z,4.57
2023-08-11T20:36:08.997Z,4.32
2023-08-11T20:38:39.220Z,4.78
2023-08-11T20:41:06.273Z,4.60
2023-08-11T20:43:32.972Z,4.20
2023-08-11T20:46:01.112Z,4.53
2023-08-11T20:48:28.133Z,3.92
2023-08-11T20:51:03.667Z,4.32
2023-08-11T20:53:30.658Z,4.80
2023-08-11T20:56:00.949Z,4.18
2023-08-11T20:58:28.834Z,3.90
2023-08-11T21:00:55.990Z,4.13
2023-08-11T21:03:22.696Z,4.20
2023-08-11T21:05:49.513Z,4.00
2023-08-11T21:08:18.386Z,4.03
2023-08-11T21:10:46.307Z,4.85
2023-08-11T21:13:14.098Z,4.85
2023-08-11T21:15:41.033Z,3.78
2023-08-11T21:18:09.744Z,4.60
2023-08-11T21:20:37.364Z,4.18
2023-08-11T21:23:05.364Z,4.15
2023-08-11T21:25:33.344Z,4.70
2023-08-11T21:28:00.281Z,4.88
2023-08-11T21:30:27.098Z,4.28
2023-08-11T21:32:53.981Z,5.20
2023-08-11T21:35:21.439Z,4.68
2023-08-11T21:37:49.395Z,4.25
2023-08-11T21:40:16.192Z,4.57
2023-08-11T21:42:43.338Z,5.22
2023-08-11T21:45:11.017Z,4.80
2023-08-11T21:47:37.678Z,4.10
2023-08-11T21:50:04.732Z,4.60
2023-08-11T21:52:31.469Z,4.65
2023-08-11T21:54:58.149Z,4.90
2023-08-11T21:57:24.883Z,4.72
2023-08-11T21:59:51.752Z,4.25
2023-08-11T22:02:18.628Z,5.00
2023-08-11T22:04:46.575Z,4.38
2023-08-11T22:07:14.112Z,4.40
2023-08-11T22:09:42.789Z,4.38
2023-08-11T22:12:12.190Z,3.78
2023-08-11T22:14:39.256Z,3.83
2023-08-11T22:17:05.930Z,3.90
2023-08-11T22:19:36.463Z,4.03
2023-08-11T22:22:08.580Z,4.28
2023-08-11T22:24:41.013Z,3.97
2023-08-11T22:27:10.845Z,4.00
2023-08-11T22:29:38.088Z,3.88
2023-08-11T22:32:05.024Z,4.45
2023-08-11T22:34:31.805Z,4.40
2023-08-11T22:36:58.490Z,4.63
2023-08-11T22:39:25.265Z,4.88
2023-08-11T22:41:51.933Z,4.75
2023-08-11T22:44:18.682Z,4.53
2023-08-11T22:46:45.323Z,4.43
2023-08-11T22:49:12.097Z,4.40
2023-08-11T22:51:38.814Z,4.72
2023-08-11T22:54:05.838Z,4.50
2023-08-11T22:56:32.585Z,4.63
2023-08-11T22:58:59.450Z,4.40
2023-08-11T23:01:26.203Z,4.45
2023-08-11T23:03:52.979Z,4.60
2023-08-11T23:06:20.650Z,4.95
2023-08-11T23:08:47.392Z,4.75
2023-08-11T23:11:14.152Z,4.07
2023-08-11T23:13:40.886Z,4.97
2023-08-11T23:16:07.737Z,4.25
2023-08-11T23:18:34.540Z,4.80
2023-08-11T23:21:01.242Z,5.38
2023-08-11T23:23:29.322Z,4.80
2023-08-11T23:25:56.329Z,4.20
2023-08-11T23:28:22.999Z,4.75
2023-08-11T23:30:49.629Z,4.88
2023-08-11T23:33:16.614Z,4.82
2023-08-11T23:35:43.327Z,4.78
2023-08-11T23:38:11.972Z,4.47
2023-08-11T23:40:39.938Z,4.72
2023-08-11T23:43:06.584Z,5.20
2023-08-11T23:45:33.404Z,4.90
2023-08-11T23:48:00.285Z,4.45
2023-08-11T23:50:27.769Z,5.03
2023-08-11T23:52:54.435Z,5.50
2023-08-11T23:55:21.373Z,4.55
2023-08-11T23:57:48.215Z,4.43
